sensor_id;sensor_type;location;lat;lon;timestamp;P1;durP1;ratioP1;P2;durP2;ratioP2
76290;SDS011;65100;46.884;17.410;2023-07-02T00:01:27;17.13;;;8.57;;
76290;SDS011;65100;46.884;17.410;2023-07-02T00:03:52;15.77;;;8.50;;
76290;SDS011;65100;46.884;17.410;2023-07-02T00:06:18;15.43;;;8.70;;
76290;SDS011;65100;46.884;17.410;2023-07-02T00:08:43;16.37;;;8.47;;
76290;SDS011;65100;46.884;17.410;2023-07-02T00:11:09;14.57;;;8.68;;
76290;SDS011;65100;46.884;17.410;2023-07-02T00:13:37;16.80;;;8.33;;
76290;SDS011;65100;46.884;17.410;2023-07-02T00:16:04;16.23;;;8.27;;
76290;SDS011;65100;46.884;17.410;2023-07-02T00:18:29;17.42;;;8.38;;
76290;SDS011;65100;46.884;17.410;2023-07-02T00:20:59;16.13;;;8.68;;
76290;SDS011;65100;46.884;17.410;2023-07-02T00:23:25;17.67;;;8.40;;
76290;SDS011;65100;46.884;17.410;2023-07-02T00:25:51;17.67;;;8.68;;
76290;SDS011;65100;46.884;17.410;2023-07-02T00:28:16;16.10;;;8.20;;
76290;SDS011;65100;46.884;17.410;2023-07-02T00:30:42;15.50;;;8.85;;
76290;SDS011;65100;46.884;17.410;2023-07-02T00:33:08;16.10;;;8.77;;
76290;SDS011;65100;46.884;17.410;2023-07-02T00:35:33;15.73;;;8.60;;
76290;SDS011;65100;46.884;17.410;2023-07-02T00:37:59;15.90;;;8.70;;
76290;SDS011;65100;46.884;17.410;2023-07-02T00:40:26;15.23;;;8.13;;
76290;SDS011;65100;46.884;17.410;2023-07-02T00:42:52;15.23;;;8.20;;
76290;SDS011;65100;46.884;17.410;2023-07-02T00:45:17;15.13;;;8.30;;
76290;SDS011;65100;46.884;17.410;2023-07-02T00:47:43;17.23;;;8.50;;
76290;SDS011;65100;46.884;17.410;2023-07-02T00:50:10;16.10;;;8.68;;
76290;SDS011;65100;46.884;17.410;2023-07-02T00:52:36;15.90;;;8.10;;
76290;SDS011;65100;46.884;17.410;2023-07-02T00:55:02;17.02;;;8.40;;
76290;SDS011;65100;46.884;17.410;2023-07-02T00:57:28;16.67;;;8.00;;
76290;SDS011;65100;46.884;17.410;2023-07-02T00:59:55;15.10;;;8.40;;
76290;SDS011;65100;46.884;17.410;2023-07-02T01:02:27;17.70;;;8.48;;
76290;SDS011;65100;46.884;17.410;2023-07-02T01:04:54;14.57;;;8.23;;
76290;SDS011;65100;46.884;17.410;2023-07-02T01:07:24;15.20;;;8.43;;
76290;SDS011;65100;46.884;17.410;2023-07-02T01:09:50;15.35;;;8.05;;
76290;SDS011;65100;46.884;17.410;2023-07-02T01:12:16;14.60;;;8.15;;
76290;SDS011;65100;46.884;17.410;2023-07-02T01:14:47;16.77;;;8.07;;
76290;SDS011;65100;46.884;17.410;2023-07-02T01:17:15;14.32;;;7.82;;
76290;SDS011;65100;46.884;17.410;2023-07-02T01:22:22;15.02;;;7.90;;
76290;SDS011;65100;46.884;17.410;2023-07-02T01:24:50;15.48;;;8.27;;
76290;SDS011;65100;46.884;17.410;2023-07-02T01:27:16;15.87;;;8.20;;
76290;SDS011;65100;46.884;17.410;2023-07-02T01:29:42;15.13;;;8.38;;
76290;SDS011;65100;46.884;17.410;2023-07-02T01:32:10;15.52;;;8.68;;
76290;SDS011;65100;46.884;17.410;2023-07-02T01:34:35;15.73;;;8.05;;
76290;SDS011;65100;46.884;17.410;2023-07-02T01:37:01;16.13;;;7.80;;
76290;SDS011;65100;46.884;17.410;2023-07-02T01:39:27;14.70;;;8.35;;
76290;SDS011;65100;46.884;17.410;2023-07-02T01:41:53;15.33;;;8.23;;
76290;SDS011;65100;46.884;17.410;2023-07-02T01:44:20;14.10;;;8.35;;
76290;SDS011;65100;46.884;17.410;2023-07-02T01:46:46;20.13;;;8.25;;
76290;SDS011;65100;46.884;17.410;2023-07-02T01:49:18;14.70;;;8.38;;
76290;SDS011;65100;46.884;17.410;2023-07-02T01:51:45;16.17;;;8.30;;
76290;SDS011;65100;46.884;17.410;2023-07-02T01:54:14;15.60;;;8.30;;
76290;SDS011;65100;46.884;17.410;2023-07-02T01:56:39;14.20;;;8.00;;
76290;SDS011;65100;46.884;17.410;2023-07-02T01:59:04;13.13;;;7.90;;
76290;SDS011;65100;46.884;17.410;2023-07-02T02:01:30;16.07;;;8.07;;
76290;SDS011;65100;46.884;17.410;2023-07-02T02:03:57;14.63;;;8.13;;
76290;SDS011;65100;46.884;17.410;2023-07-02T02:06:23;13.90;;;7.77;;
76290;SDS011;65100;46.884;17.410;2023-07-02T02:08:49;15.30;;;8.13;;
76290;SDS011;65100;46.884;17.410;2023-07-02T02:11:14;15.30;;;8.30;;
76290;SDS011;65100;46.884;17.410;2023-07-02T02:13:39;14.87;;;7.70;;
76290;SDS011;65100;46.884;17.410;2023-07-02T02:16:05;15.07;;;8.50;;
76290;SDS011;65100;46.884;17.410;2023-07-02T02:18:30;15.05;;;8.20;;
76290;SDS011;65100;46.884;17.410;2023-07-02T02:20:56;16.60;;;8.23;;
76290;SDS011;65100;46.884;17.410;2023-07-02T02:23:21;16.97;;;7.97;;
76290;SDS011;65100;46.884;17.410;2023-07-02T02:25:47;13.83;;;7.30;;
76290;SDS011;65100;46.884;17.410;2023-07-02T02:28:12;13.53;;;7.53;;
76290;SDS011;65100;46.884;17.410;2023-07-02T02:30:37;15.33;;;7.93;;
76290;SDS011;65100;46.884;17.410;2023-07-02T02:33:03;13.30;;;7.70;;
76290;SDS011;65100;46.884;17.410;2023-07-02T02:35:28;12.90;;;7.63;;
76290;SDS011;65100;46.884;17.410;2023-07-02T02:37:54;13.70;;;7.97;;
76290;SDS011;65100;46.884;17.410;2023-07-02T02:40:19;14.53;;;7.90;;
76290;SDS011;65100;46.884;17.410;2023-07-02T02:42:44;14.13;;;7.97;;
76290;SDS011;65100;46.884;17.410;2023-07-02T02:45:10;14.43;;;8.30;;
76290;SDS011;65100;46.884;17.410;2023-07-02T02:47:35;14.32;;;8.23;;
76290;SDS011;65100;46.884;17.410;2023-07-02T02:50:01;15.00;;;8.17;;
76290;SDS011;65100;46.884;17.410;2023-07-02T02:52:26;16.50;;;7.87;;
76290;SDS011;65100;46.884;17.410;2023-07-02T02:54:52;15.73;;;8.23;;
76290;SDS011;65100;46.884;17.410;2023-07-02T02:57:20;15.43;;;8.35;;
76290;SDS011;65100;46.884;17.410;2023-07-02T02:59:46;17.50;;;8.53;;
76290;SDS011;65100;46.884;17.410;2023-07-02T03:02:11;16.20;;;8.65;;
76290;SDS011;65100;46.884;17.410;2023-07-02T03:04:37;16.70;;;8.20;;
76290;SDS011;65100;46.884;17.410;2023-07-02T03:07:05;14.70;;;9.13;;
76290;SDS011;65100;46.884;17.410;2023-07-02T03:09:31;17.23;;;9.15;;
76290;SDS011;65100;46.884;17.410;2023-07-02T03:11:57;16.17;;;8.80;;
76290;SDS011;65100;46.884;17.410;2023-07-02T03:14:22;16.07;;;8.53;;
76290;SDS011;65100;46.884;17.410;2023-07-02T03:16:48;15.13;;;8.87;;
76290;SDS011;65100;46.884;17.410;2023-07-02T03:19:13;17.08;;;9.52;;
76290;SDS011;65100;46.884;17.410;2023-07-02T03:21:41;17.40;;;8.90;;
76290;SDS011;65100;46.884;17.410;2023-07-02T03:24:08;15.52;;;9.27;;
76290;SDS011;65100;46.884;17.410;2023-07-02T03:26:36;16.75;;;9.13;;
76290;SDS011;65100;46.884;17.410;2023-07-02T03:29:02;17.23;;;9.30;;
76290;SDS011;65100;46.884;17.410;2023-07-02T03:31:27;16.38;;;9.45;;
76290;SDS011;65100;46.884;17.410;2023-07-02T03:33:53;17.00;;;9.47;;
76290;SDS011;65100;46.884;17.410;2023-07-02T03:36:18;17.87;;;10.13;;
76290;SDS011;65100;46.884;17.410;2023-07-02T03:38:44;16.10;;;9.57;;
76290;SDS011;65100;46.884;17.410;2023-07-02T03:41:09;17.38;;;9.25;;
76290;SDS011;65100;46.884;17.410;2023-07-02T03:43:35;17.97;;;9.13;;
76290;SDS011;65100;46.884;17.410;2023-07-02T03:46:00;18.00;;;9.67;;
76290;SDS011;65100;46.884;17.410;2023-07-02T03:48:25;16.13;;;9.60;;
76290;SDS011;65100;46.884;17.410;2023-07-02T03:50:51;16.33;;;9.35;;
76290;SDS011;65100;46.884;17.410;2023-07-02T03:53:16;15.63;;;9.07;;
76290;SDS011;65100;46.884;17.410;2023-07-02T03:55:42;16.97;;;9.03;;
76290;SDS011;65100;46.884;17.410;2023-07-02T03:58:07;18.73;;;9.30;;
76290;SDS011;65100;46.884;17.410;2023-07-02T04:00:33;17.45;;;9.20;;
76290;SDS011;65100;46.884;17.410;2023-07-02T04:02:58;16.07;;;9.70;;
76290;SDS011;65100;46.884;17.410;2023-07-02T04:05:24;16.50;;;9.40;;
76290;SDS011;65100;46.884;17.410;2023-07-02T04:07:49;17.52;;;9.43;;
76290;SDS011;65100;46.884;17.410;2023-07-02T04:10:14;16.27;;;9.90;;
76290;SDS011;65100;46.884;17.410;2023-07-02T04:12:40;18.30;;;9.13;;
76290;SDS011;65100;46.884;17.410;2023-07-02T04:15:06;15.63;;;9.40;;
76290;SDS011;65100;46.884;17.410;2023-07-02T04:17:32;15.35;;;9.15;;
76290;SDS011;65100;46.884;17.410;2023-07-02T04:19:57;16.90;;;9.40;;
76290;SDS011;65100;46.884;17.410;2023-07-02T04:22:25;16.43;;;9.40;;
76290;SDS011;65100;46.884;17.410;2023-07-02T04:24:50;16.40;;;8.98;;
76290;SDS011;65100;46.884;17.410;2023-07-02T04:27:16;16.07;;;9.10;;
76290;SDS011;65100;46.884;17.410;2023-07-02T04:29:44;17.20;;;9.38;;
76290;SDS011;65100;46.884;17.410;2023-07-02T04:32:10;15.43;;;9.07;;
76290;SDS011;65100;46.884;17.410;2023-07-02T04:34:36;17.90;;;8.93;;
76290;SDS011;65100;46.884;17.410;2023-07-02T04:37:03;15.47;;;9.00;;
76290;SDS011;65100;46.884;17.410;2023-07-02T04:39:29;15.77;;;8.75;;
76290;SDS011;65100;46.884;17.410;2023-07-02T04:41:55;15.17;;;8.70;;
76290;SDS011;65100;46.884;17.410;2023-07-02T04:44:20;14.63;;;8.43;;
76290;SDS011;65100;46.884;17.410;2023-07-02T04:46:47;15.90;;;8.82;;
76290;SDS011;65100;46.884;17.410;2023-07-02T04:49:13;15.10;;;8.63;;
76290;SDS011;65100;46.884;17.410;2023-07-02T04:51:39;16.15;;;8.60;;
76290;SDS011;65100;46.884;17.410;2023-07-02T04:54:05;17.83;;;8.60;;
76290;SDS011;65100;46.884;17.410;2023-07-02T04:56:30;15.40;;;9.10;;
76290;SDS011;65100;46.884;17.410;2023-07-02T04:58:56;16.00;;;8.67;;
76290;SDS011;65100;46.884;17.410;2023-07-02T05:01:21;16.25;;;8.70;;
76290;SDS011;65100;46.884;17.410;2023-07-02T05:03:46;17.30;;;8.67;;
76290;SDS011;65100;46.884;17.410;2023-07-02T05:06:12;15.13;;;8.50;;
76290;SDS011;65100;46.884;17.410;2023-07-02T05:08:37;15.00;;;8.37;;
76290;SDS011;65100;46.884;17.410;2023-07-02T05:11:03;16.30;;;8.27;;
76290;SDS011;65100;46.884;17.410;2023-07-02T05:13:28;14.60;;;7.87;;
76290;SDS011;65100;46.884;17.410;2023-07-02T05:16:15;13.27;;;8.05;;
76290;SDS011;65100;46.884;17.410;2023-07-02T05:21:47;13.73;;;7.90;;
76290;SDS011;65100;46.884;17.410;2023-07-02T05:24:13;15.10;;;7.82;;
76290;SDS011;65100;46.884;17.410;2023-07-02T05:26:38;13.57;;;7.47;;
76290;SDS011;65100;46.884;17.410;2023-07-02T05:29:04;13.73;;;7.47;;
76290;SDS011;65100;46.884;17.410;2023-07-02T05:31:30;13.57;;;7.50;;
76290;SDS011;65100;46.884;17.410;2023-07-02T05:33:55;13.23;;;7.50;;
76290;SDS011;65100;46.884;17.410;2023-07-02T05:36:21;14.93;;;7.20;;
76290;SDS011;65100;46.884;17.410;2023-07-02T05:38:46;14.10;;;7.60;;
76290;SDS011;65100;46.884;17.410;2023-07-02T05:41:21;14.02;;;7.40;;
76290;SDS011;65100;46.884;17.410;2023-07-02T05:43:47;15.67;;;6.90;;
76290;SDS011;65100;46.884;17.410;2023-07-02T05:46:12;14.57;;;7.20;;
76290;SDS011;65100;46.884;17.410;2023-07-02T05:48:39;14.88;;;7.40;;
76290;SDS011;65100;46.884;17.410;2023-07-02T05:51:05;12.52;;;7.18;;
76290;SDS011;65100;46.884;17.410;2023-07-02T05:53:32;12.93;;;7.30;;
76290;SDS011;65100;46.884;17.410;2023-07-02T05:55:57;13.48;;;7.03;;
76290;SDS011;65100;46.884;17.410;2023-07-02T05:58:23;11.77;;;6.77;;
76290;SDS011;65100;46.884;17.410;2023-07-02T06:00:48;13.50;;;6.47;;
76290;SDS011;65100;46.884;17.410;2023-07-02T06:03:17;13.32;;;6.95;;
76290;SDS011;65100;46.884;17.410;2023-07-02T06:05:48;10.73;;;6.20;;
76290;SDS011;65100;46.884;17.410;2023-07-02T06:08:17;12.03;;;6.63;;
76290;SDS011;65100;46.884;17.410;2023-07-02T06:10:43;11.98;;;6.63;;
76290;SDS011;65100;46.884;17.410;2023-07-02T06:13:11;11.95;;;6.53;;
76290;SDS011;65100;46.884;17.410;2023-07-02T06:15:37;12.40;;;6.53;;
76290;SDS011;65100;46.884;17.410;2023-07-02T06:18:02;10.77;;;6.07;;
76290;SDS011;65100;46.884;17.410;2023-07-02T06:20:28;11.40;;;5.97;;
76290;SDS011;65100;46.884;17.410;2023-07-02T06:22:53;12.10;;;6.40;;
76290;SDS011;65100;46.884;17.410;2023-07-02T06:25:19;11.65;;;6.68;;
76290;SDS011;65100;46.884;17.410;2023-07-02T06:27:44;11.40;;;6.47;;
76290;SDS011;65100;46.884;17.410;2023-07-02T06:30:10;10.97;;;6.10;;
76290;SDS011;65100;46.884;17.410;2023-07-02T06:32:36;10.95;;;5.85;;
76290;SDS011;65100;46.884;17.410;2023-07-02T06:35:02;11.98;;;6.30;;
76290;SDS011;65100;46.884;17.410;2023-07-02T06:37:28;12.27;;;6.50;;
76290;SDS011;65100;46.884;17.410;2023-07-02T06:39:53;11.20;;;6.40;;
76290;SDS011;65100;46.884;17.410;2023-07-02T06:42:19;10.13;;;6.10;;
76290;SDS011;65100;46.884;17.410;2023-07-02T06:44:44;11.17;;;6.40;;
76290;SDS011;65100;46.884;17.410;2023-07-02T06:47:10;12.33;;;6.20;;
76290;SDS011;65100;46.884;17.410;2023-07-02T06:49:36;9.73;;;5.90;;
76290;SDS011;65100;46.884;17.410;2023-07-02T06:52:01;11.30;;;6.13;;
76290;SDS011;65100;46.884;17.410;2023-07-02T06:54:27;11.52;;;6.22;;
76290;SDS011;65100;46.884;17.410;2023-07-02T06:56:52;10.03;;;6.10;;
76290;SDS011;65100;46.884;17.410;2023-07-02T06:59:18;10.47;;;6.20;;
76290;SDS011;65100;46.884;17.410;2023-07-02T07:01:45;10.32;;;5.95;;
76290;SDS011;65100;46.884;17.410;2023-07-02T07:04:10;11.97;;;5.97;;
76290;SDS011;65100;46.884;17.410;2023-07-02T07:06:36;10.23;;;5.90;;
76290;SDS011;65100;46.884;17.410;2023-07-02T07:09:02;10.57;;;6.15;;
76290;SDS011;65100;46.884;17.410;2023-07-02T07:11:28;9.68;;;5.63;;
76290;SDS011;65100;46.884;17.410;2023-07-02T07:13:53;9.10;;;5.30;;
76290;SDS011;65100;46.884;17.410;2023-07-02T07:16:19;9.70;;;5.70;;
76290;SDS011;65100;46.884;17.410;2023-07-02T07:18:44;11.65;;;6.30;;
76290;SDS011;65100;46.884;17.410;2023-07-02T07:21:10;10.33;;;5.80;;
76290;SDS011;65100;46.884;17.410;2023-07-02T07:23:35;9.70;;;5.67;;
76290;SDS011;65100;46.884;17.410;2023-07-02T07:26:01;9.32;;;5.60;;
76290;SDS011;65100;46.884;17.410;2023-07-02T07:28:26;11.60;;;5.90;;
76290;SDS011;65100;46.884;17.410;2023-07-02T07:30:52;10.17;;;5.60;;
76290;SDS011;65100;46.884;17.410;2023-07-02T07:33:17;9.65;;;5.78;;
76290;SDS011;65100;46.884;17.410;2023-07-02T07:35:43;9.73;;;5.77;;
76290;SDS011;65100;46.884;17.410;2023-07-02T07:38:08;11.00;;;6.10;;
76290;SDS011;65100;46.884;17.410;2023-07-02T07:40:34;10.13;;;5.60;;
76290;SDS011;65100;46.884;17.410;2023-07-02T07:42:59;11.97;;;5.80;;
76290;SDS011;65100;46.884;17.410;2023-07-02T07:45:24;9.53;;;5.70;;
76290;SDS011;65100;46.884;17.410;2023-07-02T07:47:50;11.90;;;5.80;;
76290;SDS011;65100;46.884;17.410;2023-07-02T07:50:15;9.98;;;5.47;;
76290;SDS011;65100;46.884;17.410;2023-07-02T07:52:41;9.30;;;5.50;;
76290;SDS011;65100;46.884;17.410;2023-07-02T07:55:08;9.57;;;5.75;;
76290;SDS011;65100;46.884;17.410;2023-07-02T07:57:34;10.73;;;5.60;;
76290;SDS011;65100;46.884;17.410;2023-07-02T08:00:01;10.60;;;5.63;;
76290;SDS011;65100;46.884;17.410;2023-07-02T08:02:29;9.45;;;5.50;;
76290;SDS011;65100;46.884;17.410;2023-07-02T08:04:54;10.07;;;5.63;;
76290;SDS011;65100;46.884;17.410;2023-07-02T08:07:19;10.60;;;5.73;;
76290;SDS011;65100;46.884;17.410;2023-07-02T08:09:45;9.50;;;5.32;;
76290;SDS011;65100;46.884;17.410;2023-07-02T08:12:10;10.10;;;5.30;;
76290;SDS011;65100;46.884;17.410;2023-07-02T08:14:36;9.47;;;5.10;;
76290;SDS011;65100;46.884;17.410;2023-07-02T08:17:01;9.32;;;5.05;;
76290;SDS011;65100;46.884;17.410;2023-07-02T08:19:27;8.83;;;5.27;;
76290;SDS011;65100;46.884;17.410;2023-07-02T08:21:52;9.80;;;5.23;;
76290;SDS011;65100;46.884;17.410;2023-07-02T08:24:18;8.87;;;5.03;;
76290;SDS011;65100;46.884;17.410;2023-07-02T08:26:43;8.75;;;4.80;;
76290;SDS011;65100;46.884;17.410;2023-07-02T08:29:10;9.33;;;4.00;;
76290;SDS011;65100;46.884;17.410;2023-07-02T08:31:35;7.00;;;3.90;;
76290;SDS011;65100;46.884;17.410;2023-07-02T08:34:01;7.20;;;3.87;;
76290;SDS011;65100;46.884;17.410;2023-07-02T08:36:26;6.60;;;3.08;;
76290;SDS011;65100;46.884;17.410;2023-07-02T08:38:52;5.60;;;2.43;;
76290;SDS011;65100;46.884;17.410;2023-07-02T08:41:17;7.53;;;2.50;;
76290;SDS011;65100;46.884;17.410;2023-07-02T08:43:45;5.78;;;2.60;;
76290;SDS011;65100;46.884;17.410;2023-07-02T08:46:14;5.55;;;2.60;;
76290;SDS011;65100;46.884;17.410;2023-07-02T08:48:40;5.63;;;2.60;;
76290;SDS011;65100;46.884;17.410;2023-07-02T08:51:06;5.70;;;2.90;;
76290;SDS011;65100;46.884;17.410;2023-07-02T08:53:31;6.60;;;2.90;;
76290;SDS011;65100;46.884;17.410;2023-07-02T08:55:59;6.53;;;2.90;;
76290;SDS011;65100;46.884;17.410;2023-07-02T08:58:25;6.07;;;2.88;;
76290;SDS011;65100;46.884;17.410;2023-07-02T09:01:06;5.10;;;2.40;;
76290;SDS011;65100;46.884;17.410;2023-07-02T09:03:35;5.70;;;2.60;;
76290;SDS011;65100;46.884;17.410;2023-07-02T09:06:04;6.22;;;2.30;;
76290;SDS011;65100;46.884;17.410;2023-07-02T09:08:31;5.32;;;2.53;;
76290;SDS011;65100;46.884;17.410;2023-07-02T09:13:47;5.18;;;2.17;;
76290;SDS011;65100;46.884;17.410;2023-07-02T09:21:27;4.40;;;1.20;;
76290;SDS011;65100;46.884;17.410;2023-07-02T09:26:46;3.25;;;1.20;;
76290;SDS011;65100;46.884;17.410;2023-07-02T09:29:18;3.45;;;1.40;;
76290;SDS011;65100;46.884;17.410;2023-07-02T09:31:47;5.30;;;1.40;;
76290;SDS011;65100;46.884;17.410;2023-07-02T09:34:13;3.85;;;1.42;;
76290;SDS011;65100;46.884;17.410;2023-07-02T09:36:39;4.20;;;1.30;;
76290;SDS011;65100;46.884;17.410;2023-07-02T09:39:29;5.00;;;1.40;;
76290;SDS011;65100;46.884;17.410;2023-07-02T09:41:55;3.90;;;1.40;;
76290;SDS011;65100;46.884;17.410;2023-07-02T09:44:24;3.60;;;1.48;;
76290;SDS011;65100;46.884;17.410;2023-07-02T09:47:04;3.42;;;1.38;;
76290;SDS011;65100;46.884;17.410;2023-07-02T09:49:32;4.10;;;1.60;;
76290;SDS011;65100;46.884;17.410;2023-07-02T09:51:59;3.58;;;1.42;;
76290;SDS011;65100;46.884;17.410;2023-07-02T09:54:26;4.15;;;1.70;;
76290;SDS011;65100;46.884;17.410;2023-07-02T09:56:53;4.05;;;1.60;;
76290;SDS011;65100;46.884;17.410;2023-07-02T09:59:18;3.80;;;1.60;;
76290;SDS011;65100;46.884;17.410;2023-07-02T10:01:44;4.83;;;1.70;;
76290;SDS011;65100;46.884;17.410;2023-07-02T10:04:13;5.45;;;1.90;;
76290;SDS011;65100;46.884;17.410;2023-07-02T10:06:48;4.93;;;1.73;;
76290;SDS011;65100;46.884;17.410;2023-07-02T10:09:18;4.30;;;1.77;;
76290;SDS011;65100;46.884;17.410;2023-07-02T10:11:45;4.72;;;1.83;;
76290;SDS011;65100;46.884;17.410;2023-07-02T10:14:10;4.75;;;1.90;;
76290;SDS011;65100;46.884;17.410;2023-07-02T10:16:55;4.17;;;1.80;;
76290;SDS011;65100;46.884;17.410;2023-07-02T10:19:21;4.47;;;1.83;;
76290;SDS011;65100;46.884;17.410;2023-07-02T10:21:47;4.50;;;1.80;;
76290;SDS011;65100;46.884;17.410;2023-07-02T10:24:28;4.80;;;2.00;;
76290;SDS011;65100;46.884;17.410;2023-07-02T10:26:54;4.20;;;1.80;;
76290;SDS011;65100;46.884;17.410;2023-07-02T10:29:24;4.32;;;1.80;;
76290;SDS011;65100;46.884;17.410;2023-07-02T10:31:52;4.78;;;2.00;;
76290;SDS011;65100;46.884;17.410;2023-07-02T10:34:31;5.20;;;1.80;;
76290;SDS011;65100;46.884;17.410;2023-07-02T10:37:00;5.00;;;2.10;;
76290;SDS011;65100;46.884;17.410;2023-07-02T10:39:26;4.90;;;2.10;;
76290;SDS011;65100;46.884;17.410;2023-07-02T10:41:51;5.00;;;2.10;;
76290;SDS011;65100;46.884;17.410;2023-07-02T10:44:17;4.57;;;1.93;;
76290;SDS011;65100;46.884;17.410;2023-07-02T10:46:46;5.07;;;2.13;;
76290;SDS011;65100;46.884;17.410;2023-07-02T10:49:12;4.80;;;2.17;;
76290;SDS011;65100;46.884;17.410;2023-07-02T10:51:38;4.80;;;2.08;;
76290;SDS011;65100;46.884;17.410;2023-07-02T10:54:04;4.63;;;1.90;;
76290;SDS011;65100;46.884;17.410;2023-07-02T10:56:30;4.80;;;2.10;;
76290;SDS011;65100;46.884;17.410;2023-07-02T10:58:57;4.60;;;2.13;;
76290;SDS011;65100;46.884;17.410;2023-07-02T11:01:26;5.13;;;2.05;;
76290;SDS011;65100;46.884;17.410;2023-07-02T11:03:59;6.75;;;2.30;;
76290;SDS011;65100;46.884;17.410;2023-07-02T11:06:27;5.63;;;2.17;;
76290;SDS011;65100;46.884;17.410;2023-07-02T11:08:53;4.80;;;2.10;;
76290;SDS011;65100;46.884;17.410;2023-07-02T11:11:20;5.47;;;2.20;;
76290;SDS011;65100;46.884;17.410;2023-07-02T11:13:47;5.43;;;2.15;;
76290;SDS011;65100;46.884;17.410;2023-07-02T11:16:21;5.10;;;2.20;;
76290;SDS011;65100;46.884;17.410;2023-07-02T11:19:05;4.90;;;2.10;;
76290;SDS011;65100;46.884;17.410;2023-07-02T11:21:34;5.85;;;2.00;;
76290;SDS011;65100;46.884;17.410;2023-07-02T11:24:04;4.93;;;2.20;;
76290;SDS011;65100;46.884;17.410;2023-07-02T11:26:37;5.00;;;2.20;;
76290;SDS011;65100;46.884;17.410;2023-07-02T11:29:03;5.10;;;2.20;;
76290;SDS011;65100;46.884;17.410;2023-07-02T11:31:33;5.10;;;2.10;;
76290;SDS011;65100;46.884;17.410;2023-07-02T11:33:58;5.00;;;2.10;;
76290;SDS011;65100;46.884;17.410;2023-07-02T11:36:24;5.10;;;2.20;;
76290;SDS011;65100;46.884;17.410;2023-07-02T11:38:50;4.70;;;2.00;;
76290;SDS011;65100;46.884;17.410;2023-07-02T11:41:16;5.07;;;2.03;;
76290;SDS011;65100;46.884;17.410;2023-07-02T11:43:43;4.80;;;2.20;;
76290;SDS011;65100;46.884;17.410;2023-07-02T11:46:08;4.63;;;1.97;;
76290;SDS011;65100;46.884;17.410;2023-07-02T11:48:33;4.90;;;2.10;;
76290;SDS011;65100;46.884;17.410;2023-07-02T11:50:59;5.10;;;2.10;;
76290;SDS011;65100;46.884;17.410;2023-07-02T11:53:25;4.80;;;2.20;;
76290;SDS011;65100;46.884;17.410;2023-07-02T11:55:50;5.65;;;2.28;;
76290;SDS011;65100;46.884;17.410;2023-07-02T11:58:16;7.23;;;2.30;;
76290;SDS011;65100;46.884;17.410;2023-07-02T12:00:41;4.80;;;2.13;;
76290;SDS011;65100;46.884;17.410;2023-07-02T12:03:07;5.80;;;2.08;;
76290;SDS011;65100;46.884;17.410;2023-07-02T12:05:32;5.10;;;2.30;;
76290;SDS011;65100;46.884;17.410;2023-07-02T12:07:57;5.33;;;2.33;;
76290;SDS011;65100;46.884;17.410;2023-07-02T12:10:23;4.93;;;2.20;;
76290;SDS011;65100;46.884;17.410;2023-07-02T12:12:48;5.10;;;2.20;;
76290;SDS011;65100;46.884;17.410;2023-07-02T12:15:14;6.20;;;2.20;;
76290;SDS011;65100;46.884;17.410;2023-07-02T12:17:39;5.63;;;2.17;;
76290;SDS011;65100;46.884;17.410;2023-07-02T12:20:05;4.70;;;2.10;;
76290;SDS011;65100;46.884;17.410;2023-07-02T12:22:31;7.67;;;2.50;;
76290;SDS011;65100;46.884;17.410;2023-07-02T12:24:56;5.63;;;2.30;;
76290;SDS011;65100;46.884;17.410;2023-07-02T12:27:22;5.13;;;2.30;;
76290;SDS011;65100;46.884;17.410;2023-07-02T12:29:48;4.68;;;2.00;;
76290;SDS011;65100;46.884;17.410;2023-07-02T12:32:14;5.10;;;2.10;;
76290;SDS011;65100;46.884;17.410;2023-07-02T12:34:39;4.90;;;2.00;;
76290;SDS011;65100;46.884;17.410;2023-07-02T12:37:05;5.20;;;2.13;;
76290;SDS011;65100;46.884;17.410;2023-07-02T12:39:30;5.28;;;2.30;;
76290;SDS011;65100;46.884;17.410;2023-07-02T12:41:56;5.37;;;2.13;;
76290;SDS011;65100;46.884;17.410;2023-07-02T12:44:21;5.80;;;2.30;;
76290;SDS011;65100;46.884;17.410;2023-07-02T12:46:47;7.63;;;2.17;;
76290;SDS011;65100;46.884;17.410;2023-07-02T12:49:12;5.28;;;2.33;;
76290;SDS011;65100;46.884;17.410;2023-07-02T12:51:38;4.97;;;2.20;;
76290;SDS011;65100;46.884;17.410;2023-07-02T12:54:03;4.90;;;2.20;;
76290;SDS011;65100;46.884;17.410;2023-07-02T12:56:29;4.60;;;2.00;;
76290;SDS011;65100;46.884;17.410;2023-07-02T12:58:54;5.53;;;2.40;;
76290;SDS011;65100;46.884;17.410;2023-07-02T13:01:20;6.30;;;2.20;;
76290;SDS011;65100;46.884;17.410;2023-07-02T13:03:46;4.78;;;2.10;;
76290;SDS011;65100;46.884;17.410;2023-07-02T13:06:15;4.97;;;2.20;;
76290;SDS011;65100;46.884;17.410;2023-07-02T13:08:41;5.78;;;2.30;;
76290;SDS011;65100;46.884;17.410;2023-07-02T13:11:07;5.40;;;2.60;;
76290;SDS011;65100;46.884;17.410;2023-07-02T13:13:34;5.00;;;2.30;;
76290;SDS011;65100;46.884;17.410;2023-07-02T13:16:01;4.60;;;2.07;;
76290;SDS011;65100;46.884;17.410;2023-07-02T13:18:27;6.13;;;2.40;;
76290;SDS011;65100;46.884;17.410;2023-07-02T13:20:52;5.30;;;2.50;;
76290;SDS011;65100;46.884;17.410;2023-07-02T13:23:18;5.37;;;2.60;;
76290;SDS011;65100;46.884;17.410;2023-07-02T13:25:43;5.50;;;2.50;;
76290;SDS011;65100;46.884;17.410;2023-07-02T13:28:09;5.88;;;2.45;;
76290;SDS011;65100;46.884;17.410;2023-07-02T13:30:34;6.60;;;2.60;;
76290;SDS011;65100;46.884;17.410;2023-07-02T13:33:00;5.40;;;2.50;;
76290;SDS011;65100;46.884;17.410;2023-07-02T13:35:25;5.53;;;2.28;;
76290;SDS011;65100;46.884;17.410;2023-07-02T13:37:51;5.73;;;2.30;;
76290;SDS011;65100;46.884;17.410;2023-07-02T13:40:16;5.10;;;2.30;;
76290;SDS011;65100;46.884;17.410;2023-07-02T13:42:42;5.10;;;2.08;;
76290;SDS011;65100;46.884;17.410;2023-07-02T13:45:08;5.23;;;1.80;;
76290;SDS011;65100;46.884;17.410;2023-07-02T13:47:34;3.63;;;1.50;;
76290;SDS011;65100;46.884;17.410;2023-07-02T13:50:00;3.70;;;1.58;;
76290;SDS011;65100;46.884;17.410;2023-07-02T13:52:26;3.67;;;1.40;;
76290;SDS011;65100;46.884;17.410;2023-07-02T13:54:52;4.00;;;1.50;;
76290;SDS011;65100;46.884;17.410;2023-07-02T13:57:17;4.07;;;1.50;;
76290;SDS011;65100;46.884;17.410;2023-07-02T13:59:42;3.93;;;1.40;;
76290;SDS011;65100;46.884;17.410;2023-07-02T14:02:08;4.40;;;1.70;;
76290;SDS011;65100;46.884;17.410;2023-07-02T14:04:33;3.83;;;1.60;;
76290;SDS011;65100;46.884;17.410;2023-07-02T14:06:59;3.97;;;1.60;;
76290;SDS011;65100;46.884;17.410;2023-07-02T14:09:24;4.10;;;1.60;;
76290;SDS011;65100;46.884;17.410;2023-07-02T14:11:50;5.00;;;1.73;;
76290;SDS011;65100;46.884;17.410;2023-07-02T14:14:15;4.17;;;1.60;;
76290;SDS011;65100;46.884;17.410;2023-07-02T14:16:40;4.30;;;1.60;;
76290;SDS011;65100;46.884;17.410;2023-07-02T14:19:06;5.53;;;1.47;;
76290;SDS011;65100;46.884;17.410;2023-07-02T14:21:31;3.73;;;1.60;;
76290;SDS011;65100;46.884;17.410;2023-07-02T14:23:57;4.00;;;1.60;;
76290;SDS011;65100;46.884;17.410;2023-07-02T14:26:23;5.88;;;2.45;;
76290;SDS011;65100;46.884;17.410;2023-07-02T14:28:49;5.10;;;1.90;;
76290;SDS011;65100;46.884;17.410;2023-07-02T14:31:14;4.13;;;1.60;;
76290;SDS011;65100;46.884;17.410;2023-07-02T14:33:40;3.88;;;1.42;;
76290;SDS011;65100;46.884;17.410;2023-07-02T14:36:05;4.00;;;1.60;;
76290;SDS011;65100;46.884;17.410;2023-07-02T14:38:31;4.20;;;1.65;;
76290;SDS011;65100;46.884;17.410;2023-07-02T14:40:58;4.17;;;1.40;;